sensor_id;sensor_type;location;lat;lon;timestamp;pressure;altitude;pressure_sealevel;temperature;humidity
83191;BME280;73087;49.924;22.080;2023-12-20T00:00:02;98484.31;;;6.19;66.04
83191;BME280;73087;49.924;22.080;2023-12-20T00:01:03;98477.22;;;6.21;65.89
83191;BME280;73087;49.924;22.080;2023-12-20T00:02:04;98488.38;;;6.23;65.25
83191;BME280;73087;49.924;22.080;2023-12-20T00:03:04;98483.66;;;6.28;65.34
83191;BME280;73087;49.924;22.080;2023-12-20T00:04:06;98468.25;;;6.25;65.68
83191;BME280;73087;49.924;22.080;2023-12-20T00:05:07;98483.44;;;6.31;65.87
83191;BME280;73087;49.924;22.080;2023-12-20T00:06:08;98469.22;;;6.35;66.23
83191;BME280;73087;49.924;22.080;2023-12-20T00:07:08;98478.00;;;6.34;65.43
83191;BME280;73087;49.924;22.080;2023-12-20T00:08:09;98474.66;;;6.32;65.65
83191;BME280;73087;49.924;22.080;2023-12-20T00:09:10;98476.34;;;6.33;64.67
83191;BME280;73087;49.924;22.080;2023-12-20T00:10:10;98469.69;;;6.29;64.58
83191;BME280;73087;49.924;22.080;2023-12-20T00:11:11;98460.91;;;6.30;65.21
83191;BME280;73087;49.924;22.080;2023-12-20T00:12:11;98460.91;;;6.30;65.36
83191;BME280;73087;49.924;22.080;2023-12-20T00:13:12;98459.03;;;6.32;65.17
83191;BME280;73087;49.924;22.080;2023-12-20T00:14:13;98455.47;;;6.33;65.35
83191;BME280;73087;49.924;22.080;2023-12-20T00:15:14;98449.53;;;6.31;64.88
83191;BME280;73087;49.924;22.080;2023-12-20T00:16:15;98452.97;;;6.32;64.64
83191;BME280;73087;49.924;22.080;2023-12-20T00:17:16;98448.38;;;6.35;65.16
83191;BME280;73087;49.924;22.080;2023-12-20T00:18:16;98448.59;;;6.32;65.44
83191;BME280;73087;49.924;22.080;2023-12-20T00:19:17;98448.59;;;6.32;65.76
83191;BME280;73087;49.924;22.080;2023-12-20T00:20:17;98453.81;;;6.32;65.22
83191;BME280;73087;49.924;22.080;2023-12-20T00:21:18;98448.59;;;6.32;65.22
83191;BME280;73087;49.924;22.080;2023-12-20T00:22:18;98445.03;;;6.33;64.59
83191;BME280;73087;49.924;22.080;2023-12-20T00:23:19;98443.38;;;6.32;64.84
83191;BME280;73087;49.924;22.080;2023-12-20T00:24:19;98439.22;;;6.30;65.42
83191;BME280;73087;49.924;22.080;2023-12-20T00:25:20;98429.41;;;6.33;65.24
83191;BME280;73087;49.924;22.080;2023-12-20T00:26:20;98445.28;;;6.30;64.98
83191;BME280;73087;49.924;22.080;2023-12-20T00:27:21;98438.16;;;6.32;65.09
83191;BME280;73087;49.924;22.080;2023-12-20T00:28:22;98424.41;;;6.30;65.40
83191;BME280;73087;49.924;22.080;2023-12-20T00:29:22;98445.03;;;6.33;64.72
83191;BME280;73087;49.924;22.080;2023-12-20T00:30:24;98438.16;;;6.32;64.81
83191;BME280;73087;49.924;22.080;2023-12-20T00:31:25;98441.72;;;6.31;65.24
83191;BME280;73087;49.924;22.080;2023-12-20T00:32:25;98434.84;;;6.30;65.02
83191;BME280;73087;49.924;22.080;2023-12-20T00:33:26;98441.94;;;6.28;64.28
83191;BME280;73087;49.924;22.080;2023-12-20T00:34:26;98429.84;;;6.27;65.48
83191;BME280;73087;49.924;22.080;2023-12-20T00:35:27;98441.09;;;6.28;65.31
83191;BME280;73087;49.924;22.080;2023-12-20T00:36:27;98436.50;;;6.31;65.54
83191;BME280;73087;49.924;22.080;2023-12-20T00:37:28;98439.09;;;6.31;64.93
83191;BME280;73087;49.924;22.080;2023-12-20T00:38:28;98429.63;;;6.30;65.94
83191;BME280;73087;49.924;22.080;2023-12-20T00:39:29;98436.50;;;6.31;64.95
83191;BME280;73087;49.924;22.080;2023-12-20T00:40:29;98433.91;;;6.31;65.05
83191;BME280;73087;49.924;22.080;2023-12-20T00:41:30;98438.41;;;6.29;65.47
83191;BME280;73087;49.924;22.080;2023-12-20T00:42:31;98431.53;;;6.28;65.91
83191;BME280;73087;49.924;22.080;2023-12-20T00:43:31;98424.66;;;6.27;65.90
83191;BME280;73087;49.924;22.080;2023-12-20T00:44:32;98416.09;;;6.25;65.64
83191;BME280;73087;49.924;22.080;2023-12-20T00:45:34;98415.03;;;6.28;66.07
83191;BME280;73087;49.924;22.080;2023-12-20T00:46:34;98409.00;;;6.27;65.06
83191;BME280;73087;49.924;22.080;2023-12-20T00:47:35;98407.56;;;6.23;65.58
83191;BME280;73087;49.924;22.080;2023-12-20T00:48:35;98413.72;;;6.22;64.52
83191;BME280;73087;49.924;22.080;2023-12-20T00:49:36;98416.53;;;6.19;64.71
83191;BME280;73087;49.924;22.080;2023-12-20T00:50:36;98418.44;;;6.17;64.68
83191;BME280;73087;49.924;22.080;2023-12-20T00:51:37;98411.31;;;6.19;65.75
83191;BME280;73087;49.924;22.080;2023-12-20T00:52:37;98411.31;;;6.19;65.54
83191;BME280;73087;49.924;22.080;2023-12-20T00:53:38;98408.00;;;6.17;65.13
83191;BME280;73087;49.924;22.080;2023-12-20T00:54:38;98413.22;;;6.17;65.60
83191;BME280;73087;49.924;22.080;2023-12-20T00:55:39;98413.94;;;6.19;65.03
83191;BME280;73087;49.924;22.080;2023-12-20T00:56:39;98408.00;;;6.17;65.21
83191;BME280;73087;49.924;22.080;2023-12-20T00:57:40;98399.22;;;6.18;65.18
83191;BME280;73087;49.924;22.080;2023-12-20T00:58:41;98406.09;;;6.19;65.60
83191;BME280;73087;49.924;22.080;2023-12-20T00:59:41;98409.66;;;6.18;65.07
83191;BME280;73087;49.924;22.080;2023-12-20T01:00:43;98413.44;;;6.14;66.33
83191;BME280;73087;49.924;22.080;2023-12-20T01:01:44;98398.75;;;6.13;65.78
83191;BME280;73087;49.924;22.080;2023-12-20T01:02:44;98404.91;;;6.12;64.95
83191;BME280;73087;49.924;22.080;2023-12-20T01:03:45;98394.47;;;6.12;65.62
83191;BME280;73087;49.924;22.080;2023-12-20T01:04:45;98406.81;;;6.10;65.87
83191;BME280;73087;49.924;22.080;2023-12-20T01:05:46;98396.38;;;6.10;65.73
83191;BME280;73087;49.924;22.080;2023-12-20T01:06:46;98364.81;;;5.92;66.13
83191;BME280;73087;49.924;22.080;2023-12-20T01:07:47;98382.84;;;6.06;65.55
83191;BME280;73087;49.924;22.080;2023-12-20T01:08:47;98384.75;;;6.04;65.43
83191;BME280;73087;49.924;22.080;2023-12-20T01:09:48;98379.31;;;6.07;66.69
83191;BME280;73087;49.924;22.080;2023-12-20T01:10:48;98374.31;;;6.04;66.42
83191;BME280;73087;49.924;22.080;2023-12-20T01:11:49;98384.97;;;6.01;65.74
83191;BME280;73087;49.924;22.080;2023-12-20T01:12:50;98382.00;;;6.05;66.55
83191;BME280;73087;49.924;22.080;2023-12-20T01:13:50;98381.44;;;6.02;65.09
83191;BME280;73087;49.924;22.080;2023-12-20T01:14:51;98376.44;;;5.99;65.69
83191;BME280;73087;49.924;22.080;2023-12-20T01:15:53;98378.34;;;5.97;66.42
83191;BME280;73087;49.924;22.080;2023-12-20T01:16:53;98379.50;;;5.93;65.75
83191;BME280;73087;49.924;22.080;2023-12-20T01:17:54;98373.34;;;5.94;66.73
83191;BME280;73087;49.924;22.080;2023-12-20T01:18:54;98372.72;;;5.90;66.32
83191;BME280;73087;49.924;22.080;2023-12-20T01:19:55;98375.25;;;5.92;65.39
83191;BME280;73087;49.924;22.080;2023-12-20T01:20:56;98378.78;;;5.91;66.85
83191;BME280;73087;49.924;22.080;2023-12-20T01:21:56;98371.88;;;5.90;66.30
83191;BME280;73087;49.924;22.080;2023-12-20T01:22:57;98371.88;;;5.90;66.84
83191;BME280;73087;49.924;22.080;2023-12-20T01:23:57;98373.56;;;5.91;66.46
83191;BME280;73087;49.924;22.080;2023-12-20T01:24:58;98361.47;;;5.90;66.70
83191;BME280;73087;49.924;22.080;2023-12-20T01:25:58;98368.38;;;5.91;65.57
83191;BME280;73087;49.924;22.080;2023-12-20T01:26:59;98361.47;;;5.90;66.92
83191;BME280;73087;49.924;22.080;2023-12-20T01:27:59;98366.91;;;5.87;66.64
83191;BME280;73087;49.924;22.080;2023-12-20T01:29:00;98356.47;;;5.87;67.08
83191;BME280;73087;49.924;22.080;2023-12-20T01:30:00;98356.47;;;5.87;65.35
83191;BME280;73087;49.924;22.080;2023-12-20T01:31:03;98358.16;;;5.88;66.51
83191;BME280;73087;49.924;22.080;2023-12-20T01:32:04;98363.59;;;5.85;65.74
83191;BME280;73087;49.924;22.080;2023-12-20T01:33:04;98360.97;;;5.85;66.30
83191;BME280;73087;49.924;22.080;2023-12-20T01:34:05;98351.72;;;5.81;66.74
83191;BME280;73087;49.924;22.080;2023-12-20T01:35:06;98344.84;;;5.80;66.45
83191;BME280;73087;49.924;22.080;2023-12-20T01:36:07;98351.72;;;5.81;66.27
83191;BME280;73087;49.924;22.080;2023-12-20T01:37:07;98353.38;;;5.82;66.81
83191;BME280;73087;49.924;22.080;2023-12-20T01:38:08;98343.19;;;5.79;67.05
83191;BME280;73087;49.924;22.080;2023-12-20T01:39:09;98350.06;;;5.80;66.73
83191;BME280;73087;49.924;22.080;2023-12-20T01:40:10;98343.19;;;5.79;66.88
83191;BME280;73087;49.924;22.080;2023-12-20T01:41:11;98348.19;;;5.82;67.02
83191;BME280;73087;49.924;22.080;2023-12-20T01:42:11;98353.38;;;5.82;66.85
83191;BME280;73087;49.924;22.080;2023-12-20T01:43:12;98344.63;;;5.83;67.46
83191;BME280;73087;49.924;22.080;2023-12-20T01:44:13;98341.06;;;5.84;66.22
83191;BME280;73087;49.924;22.080;2023-12-20T01:45:13;98347.22;;;5.83;66.75
83191;BME280;73087;49.924;22.080;2023-12-20T01:46:16;98346.53;;;5.81;67.25
83191;BME280;73087;49.924;22.080;2023-12-20T01:47:17;98332.78;;;5.79;67.38
83191;BME280;73087;49.924;22.080;2023-12-20T01:48:18;98345.06;;;5.77;66.91
83191;BME280;73087;49.924;22.080;2023-12-20T01:49:20;98331.09;;;5.78;67.41
83191;BME280;73087;49.924;22.080;2023-12-20T01:50:21;98336.53;;;5.75;66.35
83191;BME280;73087;49.924;22.080;2023-12-20T01:51:22;98338.41;;;5.73;65.91
83191;BME280;73087;49.924;22.080;2023-12-20T01:52:23;98335.09;;;5.71;67.09
83191;BME280;73087;49.924;22.080;2023-12-20T01:53:26;98330.59;;;5.73;67.51
83191;BME280;73087;49.924;22.080;2023-12-20T01:54:27;98338.41;;;5.73;66.30
83191;BME280;73087;49.924;22.080;2023-12-20T01:55:30;98336.53;;;5.75;66.40
83191;BME280;73087;49.924;22.080;2023-12-20T01:56:32;98342.69;;;5.74;66.54
83191;BME280;73087;49.924;22.080;2023-12-20T01:57:33;98319.91;;;5.65;66.96
83191;BME280;73087;49.924;22.080;2023-12-20T01:58:34;98340.31;;;5.71;67.01
83191;BME280;73087;49.924;22.080;2023-12-20T01:59:35;98333.44;;;5.70;66.27
83191;BME280;73087;49.924;22.080;2023-12-20T02:00:36;98324.66;;;5.71;66.60
83191;BME280;73087;49.924;22.080;2023-12-20T02:01:38;98331.78;;;5.69;66.59
83191;BME280;73087;49.924;22.080;2023-12-20T02:02:40;98338.41;;;5.73;67.31
83191;BME280;73087;49.924;22.080;2023-12-20T02:03:41;98328.00;;;5.73;66.51
83191;BME280;73087;49.924;22.080;2023-12-20T02:04:42;98324.66;;;5.71;66.83
83191;BME280;73087;49.924;22.080;2023-12-20T02:05:42;98331.31;;;5.75;66.86
83191;BME280;73087;49.924;22.080;2023-12-20T02:06:46;98327.16;;;5.72;66.13
83191;BME280;73087;49.924;22.080;2023-12-20T02:07:46;98324.44;;;5.74;66.08
83191;BME280;73087;49.924;22.080;2023-12-20T02:08:47;98325.16;;;5.76;67.49
83191;BME280;73087;49.924;22.080;2023-12-20T02:09:48;98319.22;;;5.74;67.44
83191;BME280;73087;49.924;22.080;2023-12-20T02:10:48;98325.06;;;5.77;67.70
83191;BME280;73087;49.924;22.080;2023-12-20T02:11:49;98294.09;;;5.62;66.54
83191;BME280;73087;49.924;22.080;2023-12-20T02:12:50;98318.81;;;5.80;67.22
83191;BME280;73087;49.924;22.080;2023-12-20T02:13:50;98315.25;;;5.81;66.82
83191;BME280;73087;49.924;22.080;2023-12-20T02:14:51;98311.69;;;5.82;66.43
83191;BME280;73087;49.924;22.080;2023-12-20T02:15:51;98314.31;;;5.82;66.81
83191;BME280;73087;49.924;22.080;2023-12-20T02:16:53;98316.69;;;5.85;66.72
83191;BME280;73087;49.924;22.080;2023-12-20T02:17:54;98307.91;;;5.86;67.04
83191;BME280;73087;49.924;22.080;2023-12-20T02:18:55;98309.81;;;5.84;66.83
83191;BME280;73087;49.924;22.080;2023-12-20T02:19:55;98311.47;;;5.85;66.13
83191;BME280;73087;49.924;22.080;2023-12-20T02:20:56;98311.47;;;5.85;67.08
83191;BME280;73087;49.924;22.080;2023-12-20T02:22:08;98301.06;;;5.85;66.11
83191;BME280;73087;49.924;22.080;2023-12-20T02:23:09;98307.34;;;5.82;66.79
83191;BME280;73087;49.924;22.080;2023-12-20T02:24:09;98301.50;;;5.79;67.17
83191;BME280;73087;49.924;22.080;2023-12-20T02:25:10;98268.06;;;5.62;67.26
83191;BME280;73087;49.924;22.080;2023-12-20T02:26:10;98299.38;;;5.84;67.50
83191;BME280;73087;49.924;22.080;2023-12-20T02:27:11;98295.84;;;5.85;66.88
83191;BME280;73087;49.924;22.080;2023-12-20T02:28:12;98290.63;;;5.85;67.17
83191;BME280;73087;49.924;22.080;2023-12-20T02:29:13;98293.94;;;5.87;66.01
83191;BME280;73087;49.924;22.080;2023-12-20T02:30:14;98283.53;;;5.87;65.88
83191;BME280;73087;49.924;22.080;2023-12-20T02:31:15;98288.75;;;5.87;66.80
83191;BME280;73087;49.924;22.080;2023-12-20T02:32:15;98285.19;;;5.88;67.25
83191;BME280;73087;49.924;22.080;2023-12-20T02:33:16;98280.91;;;5.87;65.82
83191;BME280;73087;49.924;22.080;2023-12-20T02:34:17;98276.66;;;5.86;67.26
83191;BME280;73087;49.924;22.080;2023-12-20T02:35:17;98267.09;;;5.86;67.15
83191;BME280;73087;49.924;22.080;2023-12-20T02:36:18;98269.56;;;5.88;67.17
83191;BME280;73087;49.924;22.080;2023-12-20T02:37:20;98274.75;;;5.88;66.91
83191;BME280;73087;49.924;22.080;2023-12-20T02:38:20;98262.44;;;5.90;65.58
83191;BME280;73087;49.924;22.080;2023-12-20T02:39:22;98269.56;;;5.88;66.69
83191;BME280;73087;49.924;22.080;2023-12-20T02:40:22;98267.66;;;5.90;67.16
83191;BME280;73087;49.924;22.080;2023-12-20T02:41:23;98264.34;;;5.88;66.71
83191;BME280;73087;49.924;22.080;2023-12-20T02:42:23;98267.88;;;5.87;65.80
83191;BME280;73087;49.924;22.080;2023-12-20T02:43:24;98263.75;;;5.84;66.11
83191;BME280;73087;49.924;22.080;2023-12-20T02:44:25;98264.56;;;5.85;66.70
83191;BME280;73087;49.924;22.080;2023-12-20T02:45:26;98264.56;;;5.85;65.87
83191;BME280;73087;49.924;22.080;2023-12-20T02:46:26;98263.16;;;5.81;66.33
83191;BME280;73087;49.924;22.080;2023-12-20T02:47:27;98268.13;;;5.84;66.27
83191;BME280;73087;49.924;22.080;2023-12-20T02:48:28;98273.34;;;5.84;66.95
83191;BME280;73087;49.924;22.080;2023-12-20T02:49:28;98281.06;;;5.85;66.10
83191;BME280;73087;49.924;22.080;2023-12-20T02:50:29;98265.28;;;5.87;65.47
83191;BME280;73087;49.924;22.080;2023-12-20T02:51:29;98267.09;;;5.86;65.73
83191;BME280;73087;49.924;22.080;2023-12-20T02:52:31;98266.47;;;5.83;66.84
83191;BME280;73087;49.924;22.080;2023-12-20T02:53:32;98270.25;;;5.79;65.89
83191;BME280;73087;49.924;22.080;2023-12-20T02:54:32;98265.03;;;5.79;65.88
83191;BME280;73087;49.924;22.080;2023-12-20T02:55:33;98272.13;;;5.77;65.81
83191;BME280;73087;49.924;22.080;2023-12-20T02:56:33;98272.34;;;5.74;66.62
83191;BME280;73087;49.924;22.080;2023-12-20T02:57:34;98269.63;;;5.75;66.15
83191;BME280;73087;49.924;22.080;2023-12-20T02:58:35;98288.22;;;5.71;65.61
83191;BME280;73087;49.924;22.080;2023-12-20T02:59:35;98283.59;;;5.74;65.94
83191;BME280;73087;49.924;22.080;2023-12-20T03:00:36;98270.69;;;5.73;65.90
83191;BME280;73087;49.924;22.080;2023-12-20T03:01:41;98278.03;;;5.68;67.05
83191;BME280;73087;49.924;22.080;2023-12-20T03:02:42;98269.25;;;5.69;66.02
83191;BME280;73087;49.924;22.080;2023-12-20T03:03:42;98267.84;;;5.65;66.61
83191;BME280;73087;49.924;22.080;2023-12-20T03:04:43;98273.50;;;5.59;66.04
83191;BME280;73087;49.924;22.080;2023-12-20T03:05:45;98264.13;;;5.56;67.29
83191;BME280;73087;49.924;22.080;2023-12-20T03:06:45;98263.28;;;5.56;66.95
83191;BME280;73087;49.924;22.080;2023-12-20T03:07:47;98267.06;;;5.52;66.33
83191;BME280;73087;49.924;22.080;2023-12-20T03:08:48;98260.41;;;5.48;67.22
83191;BME280;73087;49.924;22.080;2023-12-20T03:09:48;98262.09;;;5.49;67.00
83191;BME280;73087;49.924;22.080;2023-12-20T03:10:49;98268.38;;;5.46;67.57
83191;BME280;73087;49.924;22.080;2023-12-20T03:11:49;98262.53;;;5.43;66.69
83191;BME280;73087;49.924;22.080;2023-12-20T03:12:50;98255.44;;;5.45;66.97
83191;BME280;73087;49.924;22.080;2023-12-20T03:13:50;98251.31;;;5.42;66.68
83191;BME280;73087;49.924;22.080;2023-12-20T03:14:51;98261.72;;;5.42;66.73
83191;BME280;73087;49.924;22.080;2023-12-20T03:15:51;98261.09;;;5.39;67.31
83191;BME280;73087;49.924;22.080;2023-12-20T03:16:52;98252.84;;;5.45;67.24
83191;BME280;73087;49.924;22.080;2023-12-20T03:17:52;98254.00;;;5.41;67.04
83191;BME280;73087;49.924;22.080;2023-12-20T03:18:53;98259.22;;;5.41;67.83
83191;BME280;73087;49.924;22.080;2023-12-20T03:19:53;98264.66;;;5.38;67.78
83191;BME280;73087;49.924;22.080;2023-12-20T03:20:54;98249.25;;;5.35;68.37
83191;BME280;73087;49.924;22.080;2023-12-20T03:21:54;98254.47;;;5.35;67.64
83191;BME280;73087;49.924;22.080;2023-12-20T03:22:56;98252.81;;;5.34;68.46
83191;BME280;73087;49.924;22.080;2023-12-20T03:23:57;98264.88;;;5.35;66.95
83191;BME280;73087;49.924;22.080;2023-12-20T03:24:58;98252.59;;;5.37;67.21
83191;BME280;73087;49.924;22.080;2023-12-20T03:25:58;98256.13;;;5.36;67.82
83191;BME280;73087;49.924;22.080;2023-12-20T03:26:59;98259.69;;;5.35;68.25
83191;BME280;73087;49.924;22.080;2023-12-20T03:28:00;98261.34;;;5.36;68.26
83191;BME280;73087;49.924;22.080;2023-12-20T03:29:00;98252.59;;;5.37;68.55
83191;BME280;73087;49.924;22.080;2023-12-20T03:30:01;98247.59;;;5.34;68.04
83191;BME280;73087;49.924;22.080;2023-12-20T03:31:01;98256.13;;;5.36;67.06
83191;BME280;73087;49.924;22.080;2023-12-20T03:32:02;98256.34;;;5.33;67.29
83191;BME280;73087;49.924;22.080;2023-12-20T03:33:03;98253.03;;;5.31;68.66
83191;BME280;73087;49.924;22.080;2023-12-20T03:34:04;98261.56;;;5.33;68.57
83191;BME280;73087;49.924;22.080;2023-12-20T03:35:05;98261.56;;;5.33;68.55
83191;BME280;73087;49.924;22.080;2023-12-20T03:36:06;98263.22;;;5.34;68.52
83191;BME280;73087;49.924;22.080;2023-12-20T03:37:07;98261.56;;;5.33;67.30
83191;BME280;73087;49.924;22.080;2023-12-20T03:38:08;98257.16;;;5.33;67.81
83191;BME280;73087;49.924;22.080;2023-12-20T03:39:09;98261.34;;;5.36;67.26
83191;BME280;73087;49.924;22.080;2023-12-20T03:40:10;98259.69;;;5.35;67.10
83191;BME280;73087;49.924;22.080;2023-12-20T03:41:11;98260.72;;;5.32;66.95
83191;BME280;73087;49.924;22.080;2023-12-20T03:42:11;98266.28;;;5.28;67.53
83191;BME280;73087;49.924;22.080;2023-12-20T03:43:12;98263.88;;;5.25;67.74
83191;BME280;73087;49.924;22.080;2023-12-20T03:44:12;98260.31;;;5.26;68.34
83191;BME280;73087;49.924;22.080;2023-12-20T03:45:13;98275.94;;;5.26;68.68
83191;BME280;73087;49.924;22.080;2023-12-20T03:46:14;98269.31;;;5.22;68.38
83191;BME280;73087;49.924;22.080;2023-12-20T03:47:14;98267.41;;;5.24;68.04
83191;BME280;73087;49.924;22.080;2023-12-20T03:48:15;98267.66;;;5.21;68.44
83191;BME280;73087;49.924;22.080;2023-12-20T03:49:15;98274.50;;;5.22;67.42
83191;BME280;73087;49.924;22.080;2023-12-20T03:50:16;98271.19;;;5.20;68.83
83191;BME280;73087;49.924;22.080;2023-12-20T03:51:16;98272.84;;;5.21;68.55
83191;BME280;73087;49.924;22.080;2023-12-20T03:52:17;98262.44;;;5.21;67.70
83191;BME280;73087;49.924;22.080;2023-12-20T03:53:19;98270.97;;;5.23;67.73
83191;BME280;73087;49.924;22.080;2023-12-20T03:54:19;98274.50;;;5.22;67.82
83191;BME280;73087;49.924;22.080;2023-12-20T03:55:20;98274.75;;;5.19;67.64
83191;BME280;73087;49.924;22.080;2023-12-20T03:56:20;98262.66;;;5.18;68.33
83191;BME280;73087;49.924;22.080;2023-12-20T03:57:21;98257.47;;;5.18;67.35
83191;BME280;73087;49.924;22.080;2023-12-20T03:58:21;98271.41;;;5.17;68.41
83191;BME280;73087;49.924;22.080;2023-12-20T03:59:22;98268.09;;;5.15;68.16
83191;BME280;73087;49.924;22.080;2023-12-20T04:00:22;98268.09;;;5.15;67.96
83191;BME280;73087;49.924;22.080;2023-12-20T04:01:23;98266.66;;;5.11;68.67
83191;BME280;73087;49.924;22.080;2023-12-20T04:02:23;98266.66;;;5.11;67.71
83191;BME280;73087;49.924;22.080;2023-12-20T04:03:24;98265.22;;;5.07;69.21
83191;BME280;73087;49.924;22.080;2023-12-20T04:04:25;98273.53;;;5.12;69.10
83191;BME280;73087;49.924;22.080;2023-12-20T04:05:25;98270.44;;;5.07;68.05
83191;BME280;73087;49.924;22.080;2023-12-20T04:06:26;98270.66;;;5.04;69.09
83191;BME280;73087;49.924;22.080;2023-12-20T04:07:26;98273.97;;;5.06;69.31
83191;BME280;73087;49.924;22.080;2023-12-20T04:08:28;98263.56;;;5.06;68.32
83191;BME280;73087;49.924;22.080;2023-12-20T04:09:29;98267.13;;;5.05;68.92
83191;BME280;73087;49.924;22.080;2023-12-20T04:10:29;98263.78;;;5.03;68.94
83191;BME280;73087;49.924;22.080;2023-12-20T04:11:30;98260.47;;;5.01;68.37
83191;BME280;73087;49.924;22.080;2023-12-20T04:12:31;98262.13;;;5.02;69.48
83191;BME280;73087;49.924;22.080;2023-12-20T04:13:31;98256.94;;;5.02;69.33
83191;BME280;73087;49.924;22.080;2023-12-20T04:14:32;98255.28;;;5.01;68.95
83191;BME280;73087;49.924;22.080;2023-12-20T04:15:32;98260.69;;;4.98;68.33
83191;BME280;73087;49.924;22.080;2023-12-20T04:16:33;98255.50;;;4.98;69.50
83191;BME280;73087;49.924;22.080;2023-12-20T04:17:33;98253.84;;;4.97;68.56
83191;BME280;73087;49.924;22.080;2023-12-20T04:18:34;98256.53;;;4.95;68.51
83191;BME280;73087;49.924;22.080;2023-12-20T04:19:34;98266.13;;;4.95;69.63
83191;BME280;73087;49.924;22.080;2023-12-20T04:20:35;98257.38;;;4.96;68.38
83191;BME280;73087;49.924;22.080;2023-12-20T04:21:35;98260.91;;;4.95;69.21
83191;BME280;73087;49.924;22.080;2023-12-20T04:22:36;98264.25;;;4.97;68.04
83191;BME280;73087;49.924;22.080;2023-12-20T04:23:38;98262.34;;;4.99;69.34
83191;BME280;73087;49.924;22.080;2023-12-20T04:24:38;98259.03;;;4.97;69.51
83191;BME280;73087;49.924;22.080;2023-12-20T04:25:39;98256.22;;;5.00;69.30
83191;BME280;73087;49.924;22.080;2023-12-20T04:26:40;98260.69;;;4.98;69.06
83191;BME280;73087;49.924;22.080;2023-12-20T04:27:40;98265.91;;;4.98;68.42
83191;BME280;73087;49.924;22.080;2023-12-20T04:28:41;98257.16;;;4.99;69.22
83191;BME280;73087;49.924;22.080;2023-12-20T04:29:41;98251.56;;;4.92;67.96
83191;BME280;73087;49.924;22.080;2023-12-20T04:30:42;98260.69;;;4.98;67.95
83191;BME280;73087;49.924;22.080;2023-12-20T04:31:43;98251.22;;;4.97;68.34
83191;BME280;73087;49.924;22.080;2023-12-20T04:32:43;98248.63;;;4.97;69.46
83191;BME280;73087;49.924;22.080;2023-12-20T04:33:44;98244.84;;;5.01;69.04
83191;BME280;73087;49.924;22.080;2023-12-20T04:34:44;98248.41;;;5.00;69.44
83191;BME280;73087;49.924;22.080;2023-12-20T04:35:45;98256.22;;;5.00;69.08
83191;BME280;73087;49.924;22.080;2023-12-20T04:36:45;98253.59;;;5.00;67.85
83191;BME280;73087;49.924;22.080;2023-12-20T04:37:46;98253.59;;;5.00;69.07
83191;BME280;73087;49.924;22.080;2023-12-20T04:38:48;98253.59;;;5.00;69.40
83191;BME280;73087;49.924;22.080;2023-12-20T04:39:49;98250.28;;;4.98;69.38
83191;BME280;73087;49.924;22.080;2023-12-20T04:40:49;98248.81;;;4.94;68.34
83191;BME280;73087;49.924;22.080;2023-12-20T04:41:50;98247.16;;;4.93;68.49
83191;BME280;73087;49.924;22.080;2023-12-20T04:42:50;98250.69;;;4.92;69.29
83191;BME280;73087;49.924;22.080;2023-12-20T04:43:51;98245.63;;;4.90;69.30
83191;BME280;73087;49.924;22.080;2023-12-20T04:44:51;98238.41;;;4.94;68.16
83191;BME280;73087;49.924;22.080;2023-12-20T04:45:52;98248.81;;;4.94;69.59
83191;BME280;73087;49.924;22.080;2023-12-20T04:46:52;98246.34;;;4.92;69.32
83191;BME280;73087;49.924;22.080;2023-12-20T04:47:53;98245.31;;;4.95;68.28
83191;BME280;73087;49.924;22.080;2023-12-20T04:48:53;98244.47;;;4.94;69.24
83191;BME280;73087;49.924;22.080;2023-12-20T04:49:54;98241.97;;;4.93;69.34
83191;BME280;73087;49.924;22.080;2023-12-20T04:50:54;98233.44;;;4.91;69.09
83191;BME280;73087;49.924;22.080;2023-12-20T04:51:55;98240.31;;;4.92;68.62
83191;BME280;73087;49.924;22.080;2023-12-20T04:52:56;98232.16;;;4.96;69.66
83191;BME280;73087;49.924;22.080;2023-12-20T04:53:57;98229.91;;;4.92;68.24
83191;BME280;73087;49.924;22.080;2023-12-20T04:54:58;98238.41;;;4.94;69.57
83191;BME280;73087;49.924;22.080;2023-12-20T04:55:59;98233.22;;;4.94;68.59
83191;BME280;73087;49.924;22.080;2023-12-20T04:56:59;98238.63;;;4.91;69.58
83191;BME280;73087;49.924;22.080;2023-12-20T04:58:00;98205.63;;;4.80;68.36
83191;BME280;73087;49.924;22.080;2023-12-20T04:59:00;98226.34;;;4.93;68.90
83191;BME280;73087;49.924;22.080;2023-12-20T05:00:01;98230.75;;;4.92;70.06
83191;BME280;73087;49.924;22.080;2023-12-20T05:01:03;98229.91;;;4.92;69.89
83191;BME280;73087;49.924;22.080;2023-12-20T05:02:04;98233.22;;;4.94;69.54
83191;BME280;73087;49.924;22.080;2023-12-20T05:03:04;98226.16;;;4.96;69.60
83191;BME280;73087;49.924;22.080;2023-12-20T05:04:05;98226.16;;;4.96;69.85
83191;BME280;73087;49.924;22.080;2023-12-20T05:05:06;98220.94;;;4.96;69.08
83191;BME280;73087;49.924;22.080;2023-12-20T05:06:06;98234.69;;;4.98;70.04
83191;BME280;73087;49.924;22.080;2023-12-20T05:07:07;98229.69;;;4.95;69.51
83191;BME280;73087;49.924;22.080;2023-12-20T05:08:07;98234.91;;;4.95;69.95
83191;BME280;73087;49.924;22.080;2023-12-20T05:09:09;98232.31;;;4.95;69.75
83191;BME280;73087;49.924;22.080;2023-12-20T05:10:10;98233.03;;;4.97;69.75
83191;BME280;73087;49.924;22.080;2023-12-20T05:11:10;98236.56;;;4.96;70.00
83191;BME280;73087;49.924;22.080;2023-12-20T05:12:11;98231.34;;;4.96;69.98
83191;BME280;73087;49.924;22.080;2023-12-20T05:13:12;98235.63;;;4.97;69.19
83191;BME280;73087;49.924;22.080;2023-12-20T05:14:12;98238.00;;;5.00;70.27
83191;BME280;73087;49.924;22.080;2023-12-20T05:15:13;98227.59;;;5.00;68.72
83191;BME280;73087;49.924;22.080;2023-12-20T05:16:13;98227.59;;;5.00;69.19
83191;BME280;73087;49.924;22.080;2023-12-20T05:17:14;98220.50;;;5.02;69.05
83191;BME280;73087;49.924;22.080;2023-12-20T05:18:14;98225.69;;;5.02;68.59
83191;BME280;73087;49.924;22.080;2023-12-20T05:19:15;98225.69;;;5.02;68.87
83191;BME280;73087;49.924;22.080;2023-12-20T05:20:16;98232.34;;;5.06;68.61
83191;BME280;73087;49.924;22.080;2023-12-20T05:21:16;98230.69;;;5.05;69.88